Time;durP1;ratioP1;P1;durP2;ratioP2;P2;SDS_P1;SDS_P2;PMS_P1;PMS_P2;Temp;Humidity;BMP_temperature;BMP_pressure;BME280_temperature;BME280_humidity;BME280_pressure;Samples;Min_cycle;Max_cycle;Signal;HPM_P1;HPM_P2
2021/03/22 00:02:05;;;;;;;17.50;14.48;;;0.60;78.80;;;;;;5127217;28;20069;-67
2021/03/22 00:04:36;;;;;;;14.75;13.13;;;0.60;78.70;;;;;;5124785;28;20076;-66
2021/03/22 00:07:08;;;;;;;17.20;14.05;;;0.60;79.90;;;;;;5127484;28;20067;-67
2021/03/22 00:09:39;;;;;;;15.57;13.80;;;0.50;80.40;;;;;;5124552;28;20738;-66
2021/03/22 00:12:11;;;;;;;14.60;13.07;;;0.50;79.70;;;;;;5121951;28;20559;-66
2021/03/22 00:14:42;;;;;;;16.65;14.50;;;0.60;79.50;;;;;;5125810;28;20077;-67
2021/03/22 00:17:14;;;;;;;16.15;13.98;;;0.70;79.90;;;;;;5123715;28;20075;-66
2021/03/22 00:19:45;;;;;;;18.92;14.65;;;0.60;79.80;;;;;;5126516;28;20054;-66
2021/03/22 00:22:17;;;;;;;16.60;14.80;;;0.70;79.60;;;;;;5125821;28;20861;-65
2021/03/22 00:24:48;;;;;;;16.92;14.52;;;0.60;79.50;;;;;;5124160;28;20074;-66
2021/03/22 00:27:20;;;;;;;15.50;13.90;;;0.70;79.60;;;;;;5123747;28;20453;-67
2021/03/22 00:29:51;;;;;;;16.55;13.52;;;0.70;79.80;;;;;;5124904;28;20137;-67
2021/03/22 00:32:23;;;;;;;17.38;14.05;;;0.70;79.90;;;;;;5123924;28;20473;-67
2021/03/22 00:34:54;;;;;;;15.05;13.02;;;0.70;79.30;;;;;;5121260;28;20051;-68
2021/03/22 00:37:26;;;;;;;16.15;14.43;;;0.70;79.40;;;;;;5124449;28;20058;-66
2021/03/22 00:39:57;;;;;;;15.82;13.85;;;0.70;80.20;;;;;;5125432;28;20090;-67
2021/03/22 00:42:29;;;;;;;16.05;14.43;;;0.70;79.70;;;;;;5125137;28;20626;-67
2021/03/22 00:45:00;;;;;;;15.98;13.77;;;0.70;79.70;;;;;;5122780;28;20470;-66
2021/03/22 00:47:32;;;;;;;16.92;15.05;;;0.70;79.40;;;;;;5123917;28;20429;-66
2021/03/22 00:50:05;;;;;;;15.45;13.85;;;0.70;79.90;;;;;;5124068;28;20046;-66
2021/03/22 00:52:37;;;;;;;15.15;13.55;;;0.70;80.70;;;;;;5122681;28;20101;-67
2021/03/22 00:55:09;;;;;;;15.15;13.55;;;0.60;79.70;;;;;;5122562;28;20047;-66
2021/03/22 00:57:41;;;;;;;15.77;14.07;;;0.70;79.50;;;;;;5125207;28;20049;-67
2021/03/22 01:00:43;;;;;;;15.23;13.73;;;0.70;79.00;;;;;;5120810;28;20203;-66
2021/03/22 01:03:29;;;;;;;15.50;13.90;;;0.70;79.30;;;;;;5125275;28;20058;-66
2021/03/22 01:06:04;;;;;;;15.35;13.65;;;0.70;79.00;;;;;;5123693;28;20047;-65
2021/03/22 01:08:39;;;;;;;15.95;14.35;;;0.70;78.90;;;;;;5122799;28;20454;-67
2021/03/22 01:11:13;;;;;;;16.35;14.65;;;0.70;79.10;;;;;;5125178;28;20058;-66
2021/03/22 01:13:50;;;;;;;16.30;14.60;;;0.80;78.80;;;;;;5123826;28;20075;-66
2021/03/22 01:16:33;;;;;;;15.32;13.75;;;0.70;78.80;;;;;;5124813;28;20452;-67
2021/03/22 01:19:11;;;;;;;15.85;14.20;;;0.70;79.60;;;;;;5123598;28;20159;-66
2021/03/22 01:21:52;;;;;;;16.70;15.00;;;0.60;79.80;;;;;;5125939;28;20078;-64
2021/03/22 01:24:26;;;;;;;16.85;15.00;;;0.60;79.80;;;;;;5128930;28;20043;-66
2021/03/22 01:27:05;;;;;;;15.82;14.13;;;0.60;79.50;;;;;;5127790;28;20070;-66
2021/03/22 01:29:41;;;;;;;17.27;15.57;;;0.70;79.70;;;;;;5125230;28;20039;-68
2021/03/22 01:32:13;;;;;;;17.38;15.57;;;0.70;79.70;;;;;;5128240;28;20094;-66
2021/03/22 01:34:45;;;;;;;16.20;14.52;;;0.70;80.50;;;;;;5126852;28;20053;-66
2021/03/22 01:37:17;;;;;;;17.55;15.75;;;0.60;80.30;;;;;;5126368;28;20394;-66
2021/03/22 01:39:48;;;;;;;16.40;14.77;;;0.60;79.90;;;;;;5126694;28;20069;-66
2021/03/22 01:42:47;;;;;;;16.58;14.82;;;0.70;79.70;;;;;;5130365;28;20057;-66
2021/03/22 01:45:19;;;;;;;17.40;14.45;;;0.70;79.80;;;;;;5126016;28;20126;-66
2021/03/22 01:47:50;;;;;;;16.23;14.27;;;0.70;79.10;;;;;;5126125;28;20047;-65
2021/03/22 01:50:26;;;;;;;18.30;15.02;;;0.70;79.90;;;;;;5126620;28;20070;-65
2021/03/22 01:53:00;;;;;;;15.18;13.68;;;0.60;79.60;;;;;;5133001;28;20432;-65
2021/03/22 01:55:31;;;;;;;16.63;14.93;;;0.60;79.70;;;;;;5127015;28;20070;-67
2021/03/22 01:58:02;;;;;;;15.60;14.00;;;0.60;79.80;;;;;;5125904;28;20854;-65
2021/03/22 02:00:37;;;;;;;15.93;14.32;;;0.60;79.60;;;;;;5125274;28;20574;-65
2021/03/22 02:03:16;;;;;;;15.95;14.25;;;0.60;79.60;;;;;;5134734;28;20050;-65
2021/03/22 02:05:49;;;;;;;17.77;15.23;;;0.70;79.10;;;;;;5140063;28;20130;-65
2021/03/22 02:08:30;;;;;;;15.85;14.20;;;0.70;78.80;;;;;;5128593;28;20071;-66
2021/03/22 02:11:01;;;;;;;15.75;14.00;;;0.70;78.90;;;;;;5128882;28;20824;-66
2021/03/22 02:13:35;;;;;;;17.10;15.05;;;0.60;78.80;;;;;;5124577;28;20059;-65
2021/03/22 02:16:25;;;;;;;17.02;15.23;;;0.70;79.40;;;;;;5126130;28;20043;-65
2021/03/22 02:19:19;;;;;;;17.02;15.32;;;0.60;79.30;;;;;;5124771;28;20049;-67
2021/03/22 02:22:25;;;;;;;16.55;14.73;;;0.70;79.20;;;;;;5128355;28;20051;-65
2021/03/22 02:25:53;;;;;;;18.02;14.88;;;0.70;79.20;;;;;;5129888;28;20070;-65
2021/03/22 02:28:43;;;;;;;16.55;14.85;;;0.60;78.80;;;;;;5074060;29;20056;-64
2021/03/22 02:31:45;;;;;;;16.88;15.07;;;0.70;79.00;;;;;;5072316;29;20055;-66
2021/03/22 02:34:37;;;;;;;16.02;14.32;;;0.60;79.50;;;;;;5126232;28;20077;-66
2021/03/22 02:37:27;;;;;;;15.63;14.05;;;0.60;79.10;;;;;;5133673;28;20054;-65
2021/03/22 02:40:03;;;;;;;17.35;14.70;;;0.60;79.20;;;;;;5125085;28;20900;-64
2021/03/22 02:42:40;;;;;;;15.68;14.07;;;0.60;78.80;;;;;;5126998;28;20425;-65
2021/03/22 02:45:22;;;;;;;16.10;14.50;;;0.60;79.00;;;;;;5123370;28;20851;-65
2021/03/22 02:47:55;;;;;;;15.88;14.27;;;0.60;79.00;;;;;;5127750;28;20046;-66
2021/03/22 02:50:34;;;;;;;15.00;13.50;;;0.60;79.00;;;;;;5127738;28;20054;-66
2021/03/22 02:53:34;;;;;;;15.85;14.25;;;0.60;79.00;;;;;;5125424;28;20113;-65
2021/03/22 02:56:21;;;;;;;15.23;13.65;;;0.60;78.70;;;;;;5125825;28;20035;-65
2021/03/22 02:59:03;;;;;;;16.15;14.45;;;0.70;78.60;;;;;;5126451;28;20151;-65
2021/03/22 03:02:02;;;;;;;17.75;15.95;;;0.60;78.50;;;;;;5125049;28;20129;-65
2021/03/22 03:04:37;;;;;;;16.98;15.18;;;0.60;79.00;;;;;;5127194;28;20125;-65
2021/03/22 03:07:16;;;;;;;16.27;14.68;;;0.60;78.80;;;;;;5124431;28;20590;-65
2021/03/22 03:09:48;;;;;;;16.13;14.07;;;0.60;79.10;;;;;;5126767;28;20138;-64
2021/03/22 03:12:22;;;;;;;17.10;14.50;;;0.40;79.20;;;;;;5111177;28;20046;-65
2021/03/22 03:14:56;;;;;;;16.38;14.68;;;0.40;79.30;;;;;;5125554;28;20058;-65
2021/03/22 03:17:52;;;;;;;16.55;14.85;;;0.40;79.30;;;;;;5127085;28;20066;-66
2021/03/22 03:20:27;;;;;;;16.13;14.43;;;0.40;79.40;;;;;;5126435;28;20050;-65
2021/03/22 03:23:00;;;;;;;15.35;13.75;;;0.40;78.90;;;;;;5127988;28;20534;-66
2021/03/22 03:25:31;;;;;;;16.45;14.75;;;0.50;79.20;;;;;;5125143;28;20612;-66
2021/03/22 03:28:03;;;;;;;15.13;13.60;;;0.50;78.80;;;;;;5127628;28;20046;-64
2021/03/22 03:30:36;;;;;;;16.15;14.43;;;0.40;79.30;;;;;;5125874;28;20052;-64
2021/03/22 03:33:12;;;;;;;16.92;15.10;;;0.40;79.30;;;;;;5124485;28;20079;-65
2021/03/22 03:35:44;;;;;;;15.30;13.70;;;0.40;79.70;;;;;;5126003;28;20146;-64
2021/03/22 03:38:16;;;;;;;15.23;13.65;;;0.40;80.20;;;;;;5127139;28;20457;-65
2021/03/22 03:40:48;;;;;;;15.43;13.93;;;0.40;79.90;;;;;;5137070;28;20054;-65
2021/03/22 03:43:20;;;;;;;15.40;13.80;;;0.50;79.50;;;;;;5122544;28;20043;-65
2021/03/22 03:45:52;;;;;;;16.27;14.68;;;0.50;79.30;;;;;;5124163;28;20049;-66
2021/03/22 03:48:27;;;;;;;15.43;13.82;;;0.50;79.90;;;;;;5127785;28;20047;-65
2021/03/22 03:51:03;;;;;;;17.67;15.75;;;0.50;79.60;;;;;;5126177;28;20102;-67
2021/03/22 03:53:34;;;;;;;18.98;15.25;;;0.50;80.10;;;;;;5125252;28;20074;-65
2021/03/22 03:56:05;;;;;;;16.98;15.27;;;0.50;79.80;;;;;;5123691;28;20517;-65
2021/03/22 03:58:37;;;;;;;15.18;13.57;;;0.50;80.30;;;;;;5122412;28;20066;-65
2021/03/22 04:01:08;;;;;;;15.88;14.27;;;0.40;80.00;;;;;;5127684;28;20122;-67
2021/03/22 04:03:40;;;;;;;14.73;13.32;;;0.40;80.00;;;;;;5125992;28;20110;-66
2021/03/22 04:06:19;;;;;;;17.23;15.38;;;0.40;79.80;;;;;;5127829;28;20122;-65
2021/03/22 04:09:02;;;;;;;18.38;16.38;;;0.50;80.00;;;;;;5121813;28;20130;-65
2021/03/22 04:11:36;;;;;;;17.58;15.68;;;0.50;79.80;;;;;;5122707;28;20063;-65
2021/03/22 04:14:13;;;;;;;18.23;16.33;;;0.50;80.30;;;;;;5125848;28;20496;-64
2021/03/22 04:16:46;;;;;;;16.40;14.80;;;0.50;80.10;;;;;;5125555;28;20061;-64
2021/03/22 04:19:19;;;;;;;16.83;15.02;;;0.50;79.70;;;;;;5127658;28;20039;-65
2021/03/22 04:21:51;;;;;;;16.35;14.65;;;0.60;80.00;;;;;;5124232;28;20513;-65
2021/03/22 04:24:22;;;;;;;17.40;15.63;;;0.60;79.90;;;;;;5123757;28;20047;-65
2021/03/22 04:26:54;;;;;;;16.40;14.70;;;0.50;80.30;;;;;;5122898;28;20756;-65
2021/03/22 04:29:25;;;;;;;16.83;15.02;;;0.50;80.20;;;;;;5125361;28;20078;-64
2021/03/22 04:31:57;;;;;;;16.42;14.73;;;0.60;79.50;;;;;;5137190;28;20086;-65
2021/03/22 04:34:28;;;;;;;17.25;15.45;;;0.60;79.40;;;;;;5124217;28;20047;-64
2021/03/22 04:37:00;;;;;;;18.00;15.75;;;0.60;79.60;;;;;;5123159;28;20386;-65
2021/03/22 04:39:31;;;;;;;17.52;15.68;;;0.50;79.70;;;;;;5125434;28;20079;-68
2021/03/22 04:42:04;;;;;;;16.13;14.50;;;0.50;80.10;;;;;;5123511;28;20106;-65
2021/03/22 04:44:35;;;;;;;18.15;16.25;;;0.60;79.80;;;;;;5123849;28;20552;-66
2021/03/22 04:47:07;;;;;;;17.48;15.68;;;0.50;80.60;;;;;;5122415;28;20058;-66
2021/03/22 04:49:39;;;;;;;17.20;15.38;;;0.50;80.60;;;;;;5127371;28;20049;-65
2021/03/22 04:52:10;;;;;;;17.45;15.65;;;0.50;80.40;;;;;;5122951;28;20126;-65
2021/03/22 04:54:42;;;;;;;17.13;15.32;;;0.50;80.50;;;;;;5140837;28;20047;-65
2021/03/22 04:57:23;;;;;;;17.42;15.52;;;0.50;80.40;;;;;;5122134;28;20129;-66
2021/03/22 04:59:56;;;;;;;17.15;15.38;;;0.50;79.90;;;;;;5125444;28;20366;-66
2021/03/22 05:02:28;;;;;;;17.83;15.95;;;0.50;79.80;;;;;;5132493;28;20539;-65
2021/03/22 05:05:05;;;;;;;17.13;15.35;;;0.50;80.10;;;;;;5125407;28;20644;-65
2021/03/22 05:07:36;;;;;;;17.77;15.88;;;0.50;79.80;;;;;;5125739;28;20054;-65
2021/03/22 05:10:12;;;;;;;17.83;15.98;;;0.50;79.60;;;;;;5122931;28;20030;-66
2021/03/22 05:12:43;;;;;;;17.67;15.77;;;0.60;79.80;;;;;;5122311;28;20747;-65
2021/03/22 05:15:15;;;;;;;17.33;15.52;;;0.60;79.60;;;;;;5122784;28;20869;-67
2021/03/22 05:17:47;;;;;;;18.75;16.88;;;0.60;79.50;;;;;;5126310;28;20073;-66
2021/03/22 05:20:31;;;;;;;18.50;16.60;;;0.60;80.00;;;;;;5124156;28;20563;-67
2021/03/22 05:23:05;;;;;;;18.40;16.40;;;0.50;79.70;;;;;;5122476;28;20051;-66
2021/03/22 05:25:37;;;;;;;18.15;16.25;;;0.50;80.30;;;;;;5126690;28;20197;-67
2021/03/22 05:28:10;;;;;;;17.27;15.48;;;0.40;80.80;;;;;;5125955;28;20161;-66
2021/03/22 05:30:42;;;;;;;18.95;15.45;;;0.40;80.50;;;;;;5123446;28;20046;-66
2021/03/22 05:33:15;;;;;;;17.02;15.32;;;0.40;80.60;;;;;;5124964;28;20106;-66
2021/03/22 05:35:49;;;;;;;16.80;15.13;;;0.40;81.30;;;;;;5123758;28;20062;-67
2021/03/22 05:38:22;;;;;;;16.95;15.15;;;0.40;80.50;;;;;;5120365;28;20047;-68
2021/03/22 05:40:58;;;;;;;16.77;14.77;;;0.50;80.50;;;;;;5123064;28;20187;-66
2021/03/22 05:43:42;;;;;;;15.75;14.15;;;0.50;80.10;;;;;;5126033;28;20050;-65
2021/03/22 05:46:38;;;;;;;15.20;13.63;;;0.50;80.00;;;;;;5123121;28;20047;-65
2021/03/22 05:49:15;;;;;;;16.73;14.93;;;0.60;79.70;;;;;;5124774;28;20050;-65
2021/03/22 05:52:09;;;;;;;17.38;14.77;;;0.60;79.80;;;;;;5138515;28;20051;-67
2021/03/22 05:54:56;;;;;;;15.98;14.38;;;0.60;79.50;;;;;;5119289;28;20043;-65
2021/03/22 05:57:48;;;;;;;16.55;14.52;;;0.60;79.60;;;;;;5122050;28;20683;-67
2021/03/22 06:00:19;;;;;;;15.63;14.02;;;0.70;79.80;;;;;;5123813;28;20051;-66
2021/03/22 06:02:59;;;;;;;16.45;14.18;;;0.60;79.70;;;;;;5125282;28;20039;-65
2021/03/22 06:05:48;;;;;;;16.53;14.63;;;0.70;79.70;;;;;;5120212;28;20077;-66
2021/03/22 06:08:45;;;;;;;17.20;15.37;;;0.70;79.50;;;;;;5126679;28;20094;-65
2021/03/22 06:11:34;;;;;;;15.98;14.27;;;0.70;79.20;;;;;;5141089;28;20368;-65
2021/03/22 06:14:08;;;;;;;18.60;14.90;;;0.80;79.00;;;;;;5128881;28;20087;-64
2021/03/22 06:16:45;;;;;;;16.98;15.27;;;0.80;79.30;;;;;;5124897;28;20043;-65
2021/03/22 06:19:42;;;;;;;16.67;14.88;;;0.80;79.40;;;;;;5128434;28;20078;-64
2021/03/22 06:22:22;;;;;;;16.25;14.57;;;0.90;79.30;;;;;;5126819;28;20121;-64
2021/03/22 06:24:54;;;;;;;16.95;15.15;;;0.80;79.10;;;;;;5124891;28;20114;-65
2021/03/22 06:27:25;;;;;;;17.77;15.23;;;0.90;79.30;;;;;;5127791;28;20105;-65
2021/03/22 06:29:57;;;;;;;17.80;15.65;;;0.90;79.20;;;;;;5125124;28;20123;-65
2021/03/22 06:32:39;;;;;;;17.20;15.40;;;0.90;79.30;;;;;;5125348;28;20508;-65
2021/03/22 06:35:19;;;;;;;16.98;15.18;;;1.00;79.40;;;;;;5125033;28;20066;-65
2021/03/22 06:37:51;;;;;;;17.65;15.80;;;1.00;79.10;;;;;;5125289;28;20054;-66
2021/03/22 06:40:25;;;;;;;17.55;15.63;;;1.00;79.20;;;;;;5123345;28;20051;-66
2021/03/22 06:43:09;;;;;;;17.60;15.52;;;1.00;79.30;;;;;;5126003;28;20126;-67
2021/03/22 06:45:47;;;;;;;19.40;17.40;;;1.00;79.20;;;;;;5126742;28;20848;-65
2021/03/22 06:48:28;;;;;;;18.83;16.83;;;1.00;79.20;;;;;;5142783;28;20543;-65
2021/03/22 06:51:03;;;;;;;18.25;16.33;;;1.10;79.30;;;;;;5123075;28;20051;-66
2021/03/22 06:53:38;;;;;;;19.02;17.00;;;1.20;79.10;;;;;;5124646;28;20128;-66
2021/03/22 06:56:22;;;;;;;18.13;16.23;;;1.30;79.20;;;;;;5127208;28;20118;-66
2021/03/22 06:59:17;;;;;;;18.02;16.17;;;1.30;79.20;;;;;;5128427;28;20111;-66
2021/03/22 07:01:50;;;;;;;17.83;15.98;;;1.40;79.30;;;;;;5127858;28;20098;-66
2021/03/22 07:04:25;;;;;;;20.27;18.15;;;1.50;79.40;;;;;;5129312;28;20046;-66
2021/03/22 07:07:17;;;;;;;19.13;16.77;;;1.60;78.80;;;;;;5122764;28;20076;-66
2021/03/22 07:09:56;;;;;;;20.02;17.33;;;1.70;79.10;;;;;;5126868;28;20528;-66
2021/03/22 07:12:37;;;;;;;21.13;18.20;;;1.80;78.90;;;;;;5127406;28;20137;-66
2021/03/22 07:15:36;;;;;;;20.38;18.17;;;1.90;78.60;;;;;;5126093;28;20058;-66
2021/03/22 07:18:17;;;;;;;20.83;17.10;;;2.00;78.70;;;;;;5124289;28;20074;-66
2021/03/22 07:20:55;;;;;;;20.42;18.33;;;2.10;78.20;;;;;;5127448;28;20043;-67
2021/03/22 07:23:26;;;;;;;25.55;19.35;;;2.20;78.00;;;;;;5125421;28;20051;-66
2021/03/22 07:26:20;;;;;;;24.08;20.13;;;2.30;77.70;;;;;;5114783;28;20042;-66
2021/03/22 07:29:03;;;;;;;22.70;20.13;;;2.30;77.20;;;;;;5123068;28;20508;-66
2021/03/22 07:32:22;;;;;;;21.92;19.05;;;2.40;77.40;;;;;;5127981;28;20449;-65
2021/03/22 07:35:30;;;;;;;24.70;18.67;;;2.60;77.40;;;;;;5126243;28;20059;-66
2021/03/22 07:38:20;;;;;;;27.70;19.55;;;2.70;77.40;;;;;;5126523;28;20051;-66
2021/03/22 07:41:12;;;;;;;23.80;18.55;;;2.80;76.90;;;;;;5124340;28;20051;-66
2021/03/22 07:44:18;;;;;;;23.80;18.45;;;2.90;76.00;;;;;;5126825;28;20130;-66
2021/03/22 07:47:11;;;;;;;26.08;18.98;;;3.00;75.30;;;;;;5097416;28;20109;-67
2021/03/22 07:49:51;;;;;;;25.65;18.83;;;3.00;75.50;;;;;;5126465;28;20178;-66
2021/03/22 07:52:34;;;;;;;27.60;18.85;;;3.10;75.80;;;;;;5126644;28;20087;-66
2021/03/22 07:55:06;;;;;;;23.67;19.40;;;3.20;75.20;;;;;;5126957;28;20053;-65
2021/03/22 07:57:55;;;;;;;29.25;18.38;;;3.30;75.40;;;;;;5126959;28;20038;-66
2021/03/22 08:00:41;;;;;;;27.00;19.35;;;3.30;74.00;;;;;;5123524;28;20055;-66
2021/03/22 08:03:28;;;;;;;28.45;20.42;;;3.50;75.10;;;;;;5127850;28;20623;-66
2021/03/22 08:06:09;;;;;;;28.27;18.95;;;3.50;74.30;;;;;;5127714;28;20428;-66
2021/03/22 08:09:18;;;;;;;27.65;18.38;;;3.70;73.50;;;;;;5125851;28;20441;-66
2021/03/22 08:12:11;;;;;;;26.80;18.42;;;3.70;73.20;;;;;;5130261;28;20051;-66
2021/03/22 08:14:44;;;;;;;23.65;17.92;;;3.80;72.30;;;;;;5122026;28;20093;-66
2021/03/22 08:17:47;;;;;;;30.05;18.33;;;3.80;72.60;;;;;;5124264;28;20472;-65
2021/03/22 08:20:30;;;;;;;26.85;18.58;;;3.80;71.70;;;;;;5084021;28;20110;-66
2021/03/22 08:23:26;;;;;;;28.48;19.05;;;3.80;71.70;;;;;;5127321;28;20428;-65
2021/03/22 08:26:02;;;;;;;27.33;18.45;;;3.80;71.30;;;;;;5125118;28;20176;-66
2021/03/22 08:29:02;;;;;;;29.33;17.00;;;3.80;70.40;;;;;;5124920;28;20079;-65
2021/03/22 08:32:04;;;;;;;28.92;19.13;;;3.80;70.70;;;;;;5123957;28;20106;-66
2021/03/22 08:34:50;;;;;;;33.90;18.98;;;3.80;70.80;;;;;;5116400;28;20070;-66
2021/03/22 08:37:32;;;;;;;31.27;19.70;;;3.90;70.90;;;;;;5122191;28;20126;-66
2021/03/22 08:40:13;;;;;;;27.75;19.20;;;4.00;71.60;;;;;;5138301;28;20047;-67
2021/03/22 08:42:47;;;;;;;28.65;19.30;;;4.20;70.80;;;;;;5121122;28;20820;-66
2021/03/22 08:45:23;;;;;;;27.60;18.30;;;4.30;70.80;;;;;;5121140;28;20651;-66
2021/03/22 08:48:18;;;;;;;28.67;17.95;;;4.40;70.20;;;;;;5121605;28;20042;-67
2021/03/22 08:50:50;;;;;;;20.17;16.08;;;4.40;68.30;;;;;;5122820;28;20043;-66
2021/03/22 08:53:32;;;;;;;25.88;16.60;;;4.40;65.50;;;;;;5125426;28;20035;-66
2021/03/22 08:56:12;;;;;;;27.13;15.90;;;4.50;68.50;;;;;;5122979;28;20990;-66
2021/03/22 08:58:49;;;;;;;28.17;16.08;;;4.50;67.20;;;;;;5123772;28;20039;-66
2021/03/22 09:01:34;;;;;;;22.30;15.73;;;4.60;67.50;;;;;;5122917;28;20043;-66
2021/03/22 09:04:18;;;;;;;23.00;16.13;;;4.60;67.80;;;;;;5122557;28;20050;-67
2021/03/22 09:06:57;;;;;;;26.92;15.48;;;4.70;67.30;;;;;;5123904;28;20733;-67
2021/03/22 09:09:34;;;;;;;21.85;14.65;;;4.80;65.80;;;;;;5124690;28;20557;-66
2021/03/22 09:12:28;;;;;;;20.20;13.57;;;4.90;64.10;;;;;;5122561;28;20057;-68
2021/03/22 09:15:10;;;;;;;22.23;14.60;;;4.90;63.40;;;;;;5124881;28;20146;-67
2021/03/22 09:17:47;;;;;;;22.55;14.43;;;4.90;64.60;;;;;;5125296;28;20066;-66
2021/03/22 09:20:26;;;;;;;21.90;14.00;;;5.00;63.00;;;;;;5124607;28;20047;-65
2021/03/22 09:23:03;;;;;;;19.63;13.60;;;5.00;62.80;;;;;;5127191;28;20102;-66
2021/03/22 09:25:47;;;;;;;20.13;13.88;;;5.10;62.50;;;;;;5121830;28;20122;-66
2021/03/22 09:28:31;;;;;;;21.30;13.45;;;5.10;61.80;;;;;;5123489;28;20053;-66
2021/03/22 09:31:11;;;;;;;23.13;14.68;;;5.20;61.30;;;;;;5125581;28;20042;-66
2021/03/22 09:33:59;;;;;;;20.90;13.88;;;5.30;61.70;;;;;;5123553;28;20450;-66
2021/03/22 09:36:36;;;;;;;20.48;13.57;;;5.40;61.70;;;;;;5122319;28;20128;-67
2021/03/22 09:39:13;;;;;;;22.17;13.68;;;5.50;60.10;;;;;;5121968;28;20102;-66
2021/03/22 09:42:15;;;;;;;19.48;13.63;;;5.60;60.50;;;;;;5124485;28;20047;-67
2021/03/22 09:44:56;;;;;;;18.35;12.20;;;5.70;59.10;;;;;;5123110;28;20051;-66
2021/03/22 09:47:35;;;;;;;22.83;13.80;;;5.70;59.50;;;;;;5134423;28;20067;-67
2021/03/22 09:50:19;;;;;;;;;;;5.80;58.30;;;;;;5124704;28;20047;-67
2021/03/22 09:52:53;;;;;;;21.92;14.00;;;5.90;58.60;;;;;;5130797;28;20045;-67
2021/03/22 09:55:27;;;;;;;20.88;13.05;;;5.70;57.40;;;;;;5127393;28;20148;-67
2021/03/22 09:58:29;;;;;;;21.25;14.63;;;5.70;57.50;;;;;;5125772;28;20140;-66
2021/03/22 10:01:25;;;;;;;20.40;13.52;;;5.70;57.90;;;;;;5128204;28;20126;-68
2021/03/22 10:04:17;;;;;;;23.33;13.90;;;5.70;56.20;;;;;;5129711;28;20043;-68
2021/03/22 10:07:05;;;;;;;17.35;13.50;;;5.60;55.30;;;;;;5128543;28;20690;-68
2021/03/22 10:09:38;;;;;;;24.38;15.43;;;5.40;54.10;;;;;;5124472;28;20046;-68
2021/03/22 10:12:29;;;;;;;18.45;13.77;;;5.40;56.10;;;;;;5124662;28;20580;-69
2021/03/22 10:15:13;;;;;;;22.98;14.95;;;5.40;56.30;;;;;;5128060;28;20618;-68
2021/03/22 10:18:10;;;;;;;20.27;14.18;;;5.40;55.40;;;;;;5124198;28;20433;-67
2021/03/22 10:20:50;;;;;;;20.13;13.57;;;5.40;57.00;;;;;;5125127;28;20839;-68
2021/03/22 10:23:21;;;;;;;21.27;13.55;;;5.20;55.20;;;;;;5125831;28;20044;-68
2021/03/22 10:26:13;;;;;;;20.10;13.77;;;5.10;56.60;;;;;;5123654;28;20107;-67
2021/03/22 10:28:44;;;;;;;19.13;14.13;;;5.10;57.20;;;;;;5126388;28;20127;-68
2021/03/22 10:31:24;;;;;;;17.33;13.88;;;5.10;57.20;;;;;;5125688;28;20039;-67
2021/03/22 10:34:00;;;;;;;19.70;13.85;;;5.10;56.50;;;;;;5126128;28;20787;-68
2021/03/22 10:36:38;;;;;;;18.30;13.63;;;5.00;57.10;;;;;;5124117;28;20089;-69
2021/03/22 10:39:40;;;;;;;23.00;13.65;;;5.10;58.70;;;;;;5127847;28;20434;-67
2021/03/22 10:42:26;;;;;;;18.98;12.93;;;5.10;56.20;;;;;;5124126;28;20138;-67
2021/03/22 10:44:58;;;;;;;24.48;13.70;;;5.30;56.30;;;;;;5126432;28;20039;-67
2021/03/22 10:47:30;;;;;;;19.00;12.77;;;5.40;54.20;;;;;;5123880;28;20122;-68
2021/03/22 10:50:15;;;;;;;17.20;11.85;;;5.50;55.20;;;;;;5125897;28;20110;-67
2021/03/22 10:53:03;;;;;;;21.08;12.98;;;5.60;53.70;;;;;;5123872;28;20043;-67
2021/03/22 10:55:35;;;;;;;16.52;13.23;;;5.70;54.50;;;;;;5121394;28;20050;-67
2021/03/22 10:58:13;;;;;;;19.70;12.95;;;5.80;53.90;;;;;;5128916;28;20051;-67
2021/03/22 11:00:46;;;;;;;21.60;13.30;;;5.90;53.30;;;;;;5127412;28;20517;-68
2021/03/22 11:03:30;;;;;;;20.92;14.18;;;6.00;52.50;;;;;;5124997;28;20147;-67
2021/03/22 11:06:15;;;;;;;18.88;14.95;;;6.10;52.00;;;;;;5123400;28;20051;-67
2021/03/22 11:08:56;;;;;;;21.83;14.38;;;6.10;53.30;;;;;;5126310;28;20071;-67
2021/03/22 11:11:31;;;;;;;19.88;13.73;;;6.40;53.80;;;;;;5127244;28;20576;-68
2021/03/22 11:14:05;;;;;;;18.13;14.00;;;6.50;53.90;;;;;;5127452;28;20500;-67
2021/03/22 11:16:40;;;;;;;21.20;13.27;;;6.50;52.50;;;;;;5123705;28;20051;-69
2021/03/22 11:19:23;;;;;;;20.15;12.95;;;6.60;50.20;;;;;;5124810;28;20043;-67
2021/03/22 11:22:00;;;;;;;16.20;12.88;;;6.70;51.40;;;;;;5125848;28;20561;-68
2021/03/22 11:24:36;;;;;;;18.42;12.48;;;6.90;50.50;;;;;;5124144;28;20047;-67
2021/03/22 11:27:11;;;;;;;20.38;13.48;;;7.20;50.10;;;;;;5126012;28;20054;-67
2021/03/22 11:30:02;;;;;;;23.17;14.38;;;7.40;49.50;;;;;;5125838;28;20576;-69
2021/03/22 11:32:34;;;;;;;19.33;12.65;;;7.60;48.10;;;;;;5125899;28;20098;-67
2021/03/22 11:35:21;;;;;;;16.85;13.00;;;7.70;46.30;;;;;;5127792;28;20661;-67
2021/03/22 11:37:55;;;;;;;18.30;13.05;;;7.90;46.70;;;;;;5127885;28;20615;-68
2021/03/22 11:40:28;;;;;;;16.67;13.05;;;7.90;46.10;;;;;;5127020;28;20745;-68
2021/03/22 11:43:23;;;;;;;16.27;12.48;;;8.00;44.50;;;;;;5126865;28;20117;-67
2021/03/22 11:45:55;;;;;;;17.30;12.90;;;8.10;44.00;;;;;;5126019;28;20559;-67
2021/03/22 11:48:38;;;;;;;16.27;12.80;;;8.40;43.70;;;;;;5124597;28;20038;-66
2021/03/22 11:51:13;;;;;;;18.85;12.80;;;8.50;42.70;;;;;;5122801;28;20650;-67
2021/03/22 11:54:06;;;;;;;16.90;13.35;;;8.80;43.80;;;;;;5127031;28;20529;-68
2021/03/22 11:56:40;;;;;;;15.82;12.95;;;9.20;41.90;;;;;;5124735;28;20139;-67
2021/03/22 11:59:23;;;;;;;20.63;13.80;;;9.30;40.50;;;;;;5124901;28;20118;-67
2021/03/22 12:02:21;;;;;;;19.42;13.18;;;9.20;41.40;;;;;;5126300;28;20046;-67
2021/03/22 12:04:59;;;;;;;21.83;13.20;;;9.00;41.70;;;;;;5126123;28;20050;-68
2021/03/22 12:07:46;;;;;;;14.20;12.25;;;9.00;41.70;;;;;;5122510;28;20047;-67
2021/03/22 12:10:43;;;;;;;16.60;12.85;;;9.10;42.20;;;;;;5124965;28;20035;-67
2021/03/22 12:13:15;;;;;;;20.63;13.45;;;9.00;41.20;;;;;;5123132;28;20709;-68
2021/03/22 12:15:46;;;;;;;16.73;12.43;;;9.00;41.70;;;;;;5125048;28;20102;-67
2021/03/22 12:18:31;;;;;;;19.33;12.57;;;8.80;42.20;;;;;;5126227;28;20666;-67
2021/03/22 12:21:10;;;;;;;20.80;13.00;;;8.70;41.60;;;;;;5124680;28;20158;-68
2021/03/22 12:23:42;;;;;;;18.15;12.15;;;8.70;42.50;;;;;;5125394;28;20459;-69
2021/03/22 12:26:18;;;;;;;19.63;13.35;;;8.60;41.80;;;;;;5126699;28;20133;-68
2021/03/22 12:28:56;;;;;;;16.40;12.75;;;8.40;43.20;;;;;;5127557;28;20855;-67
2021/03/22 12:31:32;;;;;;;15.38;11.95;;;8.40;43.40;;;;;;5123778;28;20133;-68
2021/03/22 12:34:07;;;;;;;17.58;11.88;;;8.20;42.80;;;;;;5126246;28;20039;-68
2021/03/22 12:36:39;;;;;;;18.02;12.93;;;8.20;42.70;;;;;;5125973;28;20134;-67
2021/03/22 12:39:34;;;;;;;19.58;12.77;;;8.20;42.20;;;;;;5127881;28;20101;-67
2021/03/22 12:42:14;;;;;;;18.75;12.27;;;8.10;43.30;;;;;;5127048;28;20073;-69
2021/03/22 12:44:46;;;;;;;;;;;8.10;43.70;;;;;;5126886;28;20054;-68
2021/03/22 12:47:23;;;;;;;17.00;12.25;;;8.10;43.50;;;;;;5123586;28;20349;-68
2021/03/22 12:49:56;;;;;;;17.65;13.52;;;7.90;42.70;;;;;;5125004;28;20089;-67
2021/03/22 12:52:27;;;;;;;18.98;12.20;;;7.70;43.60;;;;;;5126495;28;20047;-68
2021/03/22 12:55:00;;;;;;;18.90;12.93;;;7.60;45.90;;;;;;5124921;28;20046;-67
2021/03/22 12:57:31;;;;;;;18.58;12.95;;;7.40;46.00;;;;;;5124066;28;20103;-67
2021/03/22 13:00:04;;;;;;;20.80;12.80;;;7.20;46.60;;;;;;5124660;28;20680;-68
2021/03/22 13:02:35;;;;;;;19.77;12.60;;;7.00;47.20;;;;;;5125227;28;20057;-67
2021/03/22 13:05:17;;;;;;;20.50;13.25;;;6.80;47.90;;;;;;5123545;28;20050;-67
2021/03/22 13:07:49;;;;;;;20.15;13.35;;;6.60;48.30;;;;;;5124791;28;20130;-67
2021/03/22 13:10:23;;;;;;;21.17;13.13;;;6.40;49.40;;;;;;5124137;28;20035;-67
2021/03/22 13:12:55;;;;;;;22.58;12.07;;;6.40;49.00;;;;;;5123698;28;20039;-67
2021/03/22 13:15:31;;;;;;;17.42;12.27;;;6.20;49.40;;;;;;5123475;28;20051;-68
2021/03/22 13:18:29;;;;;;;19.83;12.95;;;6.10;49.60;;;;;;5129940;28;20046;-67
2021/03/22 13:21:14;;;;;;;16.05;11.98;;;6.10;50.00;;;;;;5124456;28;20501;-67
2021/03/22 13:23:49;;;;;;;19.27;12.35;;;5.90;50.40;;;;;;5126135;28;20413;-69
2021/03/22 13:26:21;;;;;;;20.52;12.73;;;5.90;50.90;;;;;;5123985;28;20517;-67
2021/03/22 13:28:56;;;;;;;20.92;12.27;;;6.00;50.80;;;;;;5128170;28;20154;-68
2021/03/22 13:31:28;;;;;;;17.63;12.35;;;5.90;50.60;;;;;;5129038;28;20043;-67
2021/03/22 13:33:59;;;;;;;20.17;12.25;;;6.00;51.00;;;;;;5126789;28;20670;-68
2021/03/22 13:36:31;;;;;;;15.88;11.88;;;6.00;50.80;;;;;;5128063;28;20061;-68
2021/03/22 13:39:03;;;;;;;17.70;12.48;;;5.90;51.60;;;;;;5138230;28;20061;-69
2021/03/22 13:41:44;;;;;;;23.05;12.98;;;5.90;51.30;;;;;;5128753;28;20128;-69